createdAt,value
2023-03-29T00:02:04.390Z,101657.00
2023-03-29T00:04:31.486Z,101675.00
2023-03-29T00:06:58.320Z,101657.00
2023-03-29T00:09:26.964Z,101659.00
2023-03-29T00:11:53.604Z,101653.00
2023-03-29T00:14:20.324Z,101660.00
2023-03-29T00:16:47.073Z,101658.00
2023-03-29T00:19:14.003Z,101651.00
2023-03-29T00:21:41.965Z,101659.00
2023-03-29T00:24:08.560Z,101656.00
2023-03-29T00:26:37.238Z,101649.00
2023-03-29T00:29:03.859Z,101646.00
2023-03-29T00:31:30.432Z,101637.00
2023-03-29T00:33:56.903Z,101641.00
2023-03-29T00:36:23.515Z,101647.00
2023-03-29T00:38:50.054Z,101651.00
2023-03-29T00:41:17.039Z,101634.00
2023-03-29T00:43:51.780Z,101636.00
2023-03-29T00:46:18.581Z,101633.00
2023-03-29T00:48:45.679Z,101634.00
2023-03-29T00:51:15.026Z,101628.00
2023-03-29T00:53:48.617Z,101624.00
2023-03-29T00:56:34.902Z,101631.00
2023-03-29T00:59:10.712Z,101623.00
2023-03-29T01:01:48.203Z,101624.00
2023-03-29T01:04:25.506Z,101609.00
2023-03-29T01:07:07.277Z,101591.00
2023-03-29T01:09:37.583Z,101603.00
2023-03-29T01:12:12.258Z,101597.00
2023-03-29T01:14:45.321Z,101599.00
2023-03-29T01:17:12.911Z,101598.00
2023-03-29T01:19:47.331Z,101597.00
2023-03-29T01:22:19.701Z,101591.00
2023-03-29T01:25:00.137Z,101577.00
2023-03-29T01:27:49.966Z,101571.00
2023-03-29T01:30:29.042Z,101567.00
2023-03-29T01:33:33.486Z,101566.00
2023-03-29T01:36:13.210Z,101557.00
2023-03-29T01:38:49.777Z,101556.00
2023-03-29T01:41:16.846Z,101547.00
2023-03-29T01:43:59.219Z,101543.00
2023-03-29T01:46:42.129Z,101547.00
2023-03-29T01:49:16.925Z,101539.00
2023-03-29T01:51:55.318Z,101531.00
2023-03-29T01:54:25.951Z,101532.00
2023-03-29T01:56:53.905Z,101532.00
2023-03-29T01:59:25.194Z,101518.00
2023-03-29T02:01:56.696Z,101518.00
2023-03-29T02:04:29.914Z,101521.00
2023-03-29T02:06:58.245Z,101506.00
2023-03-29T02:09:24.856Z,101516.00
2023-03-29T02:11:52.928Z,101505.00
2023-03-29T02:14:19.471Z,101509.00
2023-03-29T02:16:46.453Z,101508.00
2023-03-29T02:19:13.762Z,101499.00
2023-03-29T02:22:10.798Z,101491.00
2023-03-29T02:24:41.281Z,101485.00
2023-03-29T02:27:08.397Z,101492.00
2023-03-29T02:29:34.979Z,101476.00
2023-03-29T02:32:10.138Z,101479.00
2023-03-29T02:34:48.117Z,101468.00
2023-03-29T02:37:18.933Z,101468.00
2023-03-29T02:39:48.806Z,101465.00
2023-03-29T02:42:20.433Z,101455.00
2023-03-29T02:44:51.034Z,101453.00
2023-03-29T02:47:22.409Z,101452.00
2023-03-29T02:49:49.032Z,101456.00
2023-03-29T02:52:23.095Z,101441.00
2023-03-29T02:54:52.898Z,101442.00
2023-03-29T02:57:26.538Z,101446.00
2023-03-29T02:59:57.592Z,101443.00
2023-03-29T03:02:27.814Z,101432.00
2023-03-29T03:04:54.487Z,101429.00
2023-03-29T03:07:21.214Z,101429.00
2023-03-29T03:09:47.929Z,101421.00
2023-03-29T03:12:14.489Z,101426.00
2023-03-29T03:14:41.216Z,101420.00
2023-03-29T03:17:07.790Z,101419.00
2023-03-29T03:19:34.511Z,101415.00
2023-03-29T03:22:05.399Z,101419.00
2023-03-29T03:24:37.289Z,101410.00
2023-03-29T03:27:04.039Z,101411.00
2023-03-29T03:29:30.557Z,101403.00
2023-03-29T03:31:57.201Z,101404.00
2023-03-29T03:34:23.734Z,101408.00
2023-03-29T03:36:51.225Z,101407.00
2023-03-29T03:39:18.477Z,101391.00
2023-03-29T03:41:44.958Z,101403.00
2023-03-29T03:44:13.288Z,101402.00
2023-03-29T03:46:40.096Z,101406.00
2023-03-29T03:49:06.849Z,101403.00
2023-03-29T03:51:34.596Z,101410.00
2023-03-29T03:54:01.190Z,101400.00
2023-03-29T03:56:31.283Z,101394.00
2023-03-29T03:58:57.734Z,101402.00
2023-03-29T04:01:24.554Z,101398.00
2023-03-29T04:03:51.209Z,101401.00
2023-03-29T04:06:18.610Z,101397.00
2023-03-29T04:08:45.648Z,101400.00
2023-03-29T04:11:12.276Z,101399.00
2023-03-29T04:13:38.975Z,101400.00
2023-03-29T04:16:07.178Z,101400.00
2023-03-29T04:18:34.256Z,101388.00
2023-03-29T04:21:01.130Z,101396.00
2023-03-29T04:23:28.526Z,101400.00
2023-03-29T04:25:56.638Z,101395.00
2023-03-29T04:28:23.421Z,101394.00
2023-03-29T04:30:50.562Z,101396.00
2023-03-29T04:33:17.403Z,101389.00
2023-03-29T04:35:44.273Z,101387.00
2023-03-29T04:38:11.455Z,101390.00
2023-03-29T04:40:38.407Z,101385.00
2023-03-29T04:43:07.158Z,101378.00
2023-03-29T04:45:34.005Z,101387.00
2023-03-29T04:48:00.900Z,101382.00
2023-03-29T04:50:28.721Z,101376.00
2023-03-29T04:52:55.735Z,101362.00
2023-03-29T04:55:22.755Z,101374.00
2023-03-29T04:57:49.279Z,101372.00
2023-03-29T05:00:17.000Z,101375.00
2023-03-29T05:02:44.700Z,101371.00
2023-03-29T05:05:11.974Z,101366.00
2023-03-29T05:07:39.070Z,101369.00
2023-03-29T05:10:06.892Z,101368.00
2023-03-29T05:12:33.666Z,101365.00
2023-03-29T05:15:00.452Z,101356.00
2023-03-29T05:17:27.750Z,101365.00
2023-03-29T05:19:54.756Z,101356.00
2023-03-29T05:22:23.524Z,101351.00
2023-03-29T05:24:54.193Z,101348.00
2023-03-29T05:27:23.015Z,101361.00
2023-03-29T05:29:50.157Z,101348.00
2023-03-29T05:32:18.687Z,101346.00
2023-03-29T05:34:46.708Z,101352.00
2023-03-29T05:37:13.481Z,101348.00
2023-03-29T05:39:43.107Z,101336.00
2023-03-29T05:42:12.497Z,101334.00
2023-03-29T05:44:41.291Z,101343.00
2023-03-29T05:47:08.114Z,101330.00
2023-03-29T05:49:34.644Z,101329.00
2023-03-29T05:52:03.786Z,101319.00
2023-03-29T05:54:38.110Z,101317.00
2023-03-29T05:57:05.014Z,101313.00
2023-03-29T05:59:33.928Z,101310.00
2023-03-29T06:02:05.104Z,101315.00
2023-03-29T06:04:33.888Z,101315.00
2023-03-29T06:07:05.163Z,101327.00
2023-03-29T06:09:32.591Z,101325.00
2023-03-29T06:11:59.827Z,101321.00
2023-03-29T06:14:27.192Z,101323.00
2023-03-29T06:16:55.102Z,101309.00
2023-03-29T06:19:21.879Z,101305.00
2023-03-29T06:21:53.238Z,101294.00
2023-03-29T06:24:21.585Z,101311.00
2023-03-29T06:26:48.359Z,101313.00
2023-03-29T06:29:18.009Z,101321.00
2023-03-29T06:31:45.460Z,101312.00
2023-03-29T06:34:16.654Z,101313.00
2023-03-29T06:36:43.431Z,101311.00
2023-03-29T06:39:11.406Z,101311.00
2023-03-29T06:41:40.500Z,101309.00
2023-03-29T06:44:07.003Z,101300.00
2023-03-29T06:46:33.842Z,101311.00
2023-03-29T06:49:01.832Z,101306.00
2023-03-29T06:51:47.219Z,101306.00
2023-03-29T06:54:14.287Z,101308.00
2023-03-29T06:56:41.022Z,101307.00
2023-03-29T06:59:08.547Z,101308.00
2023-03-29T07:01:35.055Z,101309.00
2023-03-29T07:04:04.912Z,101324.00
2023-03-29T07:06:34.939Z,101304.00
2023-03-29T07:09:06.602Z,101317.00
2023-03-29T07:11:36.923Z,101313.00
2023-03-29T07:14:03.718Z,101319.00
2023-03-29T07:16:30.531Z,101312.00
2023-03-29T07:18:57.739Z,101304.00
2023-03-29T07:21:26.511Z,101307.00
2023-03-29T07:23:52.999Z,101306.00
2023-03-29T07:26:28.777Z,101310.00
2023-03-29T07:28:56.731Z,101306.00
2023-03-29T07:31:23.295Z,101306.00
2023-03-29T07:33:52.734Z,101298.00
2023-03-29T07:36:19.688Z,101293.00
2023-03-29T07:38:46.445Z,101290.00
2023-03-29T07:41:12.991Z,101295.00
2023-03-29T07:43:39.741Z,101289.00
2023-03-29T07:46:06.988Z,101287.00
2023-03-29T07:48:33.882Z,101293.00
2023-03-29T07:51:01.532Z,101286.00
2023-03-29T07:53:29.791Z,101291.00
2023-03-29T07:55:56.999Z,101291.00
2023-03-29T07:58:23.749Z,101287.00
2023-03-29T08:00:50.696Z,101288.00
2023-03-29T08:03:17.293Z,101287.00
2023-03-29T08:05:44.014Z,101291.00
2023-03-29T08:08:11.848Z,101304.00
2023-03-29T08:10:39.682Z,101293.00
2023-03-29T08:13:08.639Z,101290.00
2023-03-29T08:15:38.828Z,101283.00
2023-03-29T08:18:09.836Z,101278.00
2023-03-29T08:20:36.779Z,101288.00
2023-03-29T08:23:04.596Z,101292.00
2023-03-29T08:25:31.140Z,101263.00
2023-03-29T08:27:58.081Z,101280.00
2023-03-29T08:30:24.687Z,101276.00
2023-03-29T08:32:53.000Z,101272.00
2023-03-29T08:35:23.093Z,101261.00
2023-03-29T08:37:49.623Z,101268.00
2023-03-29T08:40:21.393Z,101266.00
2023-03-29T08:43:26.419Z,101249.00
2023-03-29T08:46:03.397Z,101254.00
2023-03-29T08:48:44.279Z,101255.00
2023-03-29T08:51:31.811Z,101267.00
2023-03-29T08:54:06.670Z,101259.00
2023-03-29T08:56:38.125Z,101253.00
2023-03-29T08:59:08.059Z,101253.00
2023-03-29T09:01:36.975Z,101248.00
2023-03-29T09:04:09.760Z,101251.00
2023-03-29T09:06:39.330Z,101264.00
2023-03-29T09:09:25.578Z,101263.00
2023-03-29T09:12:11.446Z,101263.00
2023-03-29T09:14:42.757Z,101251.00
2023-03-29T09:17:18.054Z,101259.00
2023-03-29T09:20:04.373Z,101242.00
2023-03-29T09:22:47.184Z,101252.00
2023-03-29T09:25:29.599Z,101264.00
2023-03-29T09:28:16.838Z,101252.00
2023-03-29T09:30:58.525Z,101263.00
2023-03-29T09:33:28.767Z,101249.00
2023-03-29T09:36:08.226Z,101242.00
2023-03-29T09:38:39.679Z,101253.00
2023-03-29T09:41:19.265Z,101256.00
2023-03-29T09:43:48.166Z,101246.00
2023-03-29T09:46:22.983Z,101229.00
2023-03-29T09:48:50.742Z,101226.00
2023-03-29T09:51:19.827Z,101238.00
2023-03-29T09:53:47.128Z,101229.00
2023-03-29T09:56:15.934Z,101227.00
2023-03-29T09:58:44.119Z,101222.00
2023-03-29T10:01:14.648Z,101210.00
2023-03-29T10:03:42.303Z,101224.00
2023-03-29T10:06:11.234Z,101226.00
2023-03-29T10:08:58.000Z,101208.00
2023-03-29T10:11:30.736Z,101239.00
2023-03-29T10:14:04.695Z,101213.00
2023-03-29T10:16:38.390Z,101208.00
2023-03-29T10:19:31.216Z,101203.00
2023-03-29T10:22:00.017Z,101192.00
2023-03-29T10:24:29.721Z,101203.00
2023-03-29T10:27:03.062Z,101197.00
2023-03-29T10:29:36.895Z,101190.00
2023-03-29T10:32:14.251Z,101185.00
2023-03-29T10:34:41.710Z,101202.00
2023-03-29T10:37:10.559Z,101202.00
2023-03-29T10:39:37.549Z,101190.00
2023-03-29T10:42:05.033Z,101212.00
2023-03-29T10:44:35.172Z,101214.00
2023-03-29T10:47:20.209Z,101202.00
2023-03-29T10:49:56.688Z,101204.00
2023-03-29T10:52:23.803Z,101196.00
2023-03-29T10:54:52.813Z,101193.00
2023-03-29T10:57:44.356Z,101177.00
2023-03-29T11:00:21.401Z,101189.00
2023-03-29T11:03:02.611Z,101186.00
2023-03-29T11:05:32.672Z,101182.00
2023-03-29T11:08:38.161Z,101165.00
2023-03-29T11:11:45.500Z,101183.00
2023-03-29T11:14:27.189Z,101165.00
2023-03-29T11:17:10.466Z,101182.00
2023-03-29T11:19:56.821Z,101180.00
2023-03-29T11:22:26.184Z,101179.00
2023-03-29T11:25:17.124Z,101172.00
2023-03-29T11:27:57.288Z,101169.00
2023-03-29T11:30:35.443Z,101150.00
2023-03-29T11:33:15.426Z,101143.00
2023-03-29T11:36:02.238Z,101151.00
2023-03-29T11:39:18.536Z,101150.00
2023-03-29T11:41:56.339Z,101148.00
2023-03-29T11:44:34.195Z,101148.00
2023-03-29T11:47:07.150Z,101149.00
2023-03-29T11:49:40.688Z,101145.00
2023-03-29T11:52:15.004Z,101140.00
2023-03-29T11:54:48.673Z,101150.00
2023-03-29T11:57:34.400Z,101144.00
2023-03-29T12:00:13.245Z,101149.00
2023-03-29T12:02:44.669Z,101154.00
2023-03-29T12:05:22.309Z,101141.00
2023-03-29T12:07:56.692Z,101136.00
2023-03-29T12:10:31.093Z,101144.00
2023-03-29T12:13:15.112Z,101147.00
2023-03-29T12:15:48.093Z,101131.00
2023-03-29T12:18:22.706Z,101130.00
2023-03-29T12:20:58.225Z,101127.00
2023-03-29T12:23:25.058Z,101131.00
2023-03-29T12:26:04.337Z,101136.00
2023-03-29T12:28:56.782Z,101135.00
2023-03-29T12:31:42.890Z,101127.00
2023-03-29T12:34:39.338Z,101128.00
2023-03-29T12:37:23.595Z,101130.00
2023-03-29T12:39:51.533Z,101119.00
2023-03-29T12:42:21.223Z,101113.00
2023-03-29T12:44:58.757Z,101110.00
2023-03-29T12:47:27.058Z,101118.00
2023-03-29T12:49:57.664Z,101115.00
2023-03-29T12:52:35.746Z,101118.00
2023-03-29T12:55:23.299Z,101119.00
2023-03-29T12:58:09.874Z,101096.00
2023-03-29T13:00:36.713Z,101091.00
2023-03-29T13:03:19.705Z,101092.00
2023-03-29T13:05:47.043Z,101084.00
2023-03-29T13:08:26.069Z,101086.00
2023-03-29T13:10:56.653Z,101093.00
2023-03-29T13:13:31.699Z,101095.00
2023-03-29T13:16:11.270Z,101096.00
2023-03-29T13:19:14.839Z,101091.00
2023-03-29T13:22:10.606Z,101090.00
2023-03-29T13:25:09.424Z,101093.00
2023-03-29T13:27:43.189Z,101092.00
2023-03-29T13:30:26.207Z,101092.00
2023-03-29T13:33:09.679Z,101096.00
2023-03-29T13:36:06.600Z,101094.00
2023-03-29T13:38:44.584Z,101104.00
2023-03-29T13:41:36.513Z,101092.00
2023-03-29T13:44:03.065Z,101091.00
2023-03-29T13:46:43.730Z,101087.00
2023-03-29T13:49:29.530Z,101081.00
2023-03-29T13:52:26.462Z,101079.00
2023-03-29T13:55:14.614Z,101077.00
2023-03-29T13:57:48.197Z,101084.00
2023-03-29T14:00:20.348Z,101074.00
2023-03-29T14:02:54.342Z,101079.00
2023-03-29T14:05:50.858Z,101073.00
2023-03-29T14:08:27.113Z,101076.00
2023-03-29T14:10:55.352Z,101079.00
2023-03-29T14:13:25.409Z,101086.00
2023-03-29T14:15:55.464Z,101091.00
2023-03-29T14:18:27.635Z,101093.00
2023-03-29T14:20:56.105Z,101085.00
2023-03-29T14:23:25.636Z,101091.00
2023-03-29T14:25:52.324Z,101095.00
2023-03-29T14:28:21.204Z,101101.00
2023-03-29T14:30:48.298Z,101088.00
2023-03-29T14:33:14.844Z,101086.00
2023-03-29T14:35:44.035Z,101073.00
2023-03-29T14:38:13.073Z,101077.00
2023-03-29T14:40:41.018Z,101072.00
2023-03-29T14:43:08.270Z,101067.00
2023-03-29T14:45:35.054Z,101064.00
2023-03-29T14:48:02.157Z,101068.00
2023-03-29T14:50:30.970Z,101062.00
2023-03-29T14:53:00.713Z,101055.00
2023-03-29T14:55:27.510Z,101059.00
2023-03-29T14:57:58.432Z,101064.00
2023-03-29T15:00:30.273Z,101065.00
2023-03-29T15:03:02.354Z,101059.00
2023-03-29T15:05:37.231Z,101065.00
2023-03-29T15:08:04.824Z,101071.00
2023-03-29T15:10:34.427Z,101068.00
2023-03-29T15:13:03.708Z,101074.00
2023-03-29T15:15:34.957Z,101058.00
2023-03-29T15:18:03.008Z,101061.00
2023-03-29T15:20:33.883Z,101049.00
2023-03-29T15:23:07.644Z,101048.00
2023-03-29T15:25:38.969Z,101044.00
2023-03-29T15:28:05.298Z,101036.00
2023-03-29T15:30:35.109Z,101039.00
2023-03-29T15:33:15.555Z,101025.00
2023-03-29T15:35:44.116Z,101020.00
2023-03-29T15:38:13.209Z,101010.00
2023-03-29T15:40:39.863Z,101008.00
2023-03-29T15:43:07.768Z,101004.00
2023-03-29T15:45:35.407Z,100999.00
2023-03-29T15:48:04.881Z,100992.00
2023-03-29T15:50:32.085Z,100993.00
2023-03-29T15:53:14.255Z,100985.00
2023-03-29T15:55:47.859Z,100982.00
2023-03-29T15:58:22.269Z,100977.00
2023-03-29T16:00:53.946Z,100972.00
2023-03-29T16:03:23.094Z,100978.00
2023-03-29T16:05:52.365Z,100985.00
2023-03-29T16:08:19.072Z,100982.00
2023-03-29T16:10:46.612Z,100982.00
2023-03-29T16:13:14.386Z,100986.00
2023-03-29T16:15:42.654Z,100990.00
2023-03-29T16:18:09.075Z,100986.00
2023-03-29T16:20:36.059Z,100979.00
2023-03-29T16:23:09.882Z,100985.00
2023-03-29T16:25:38.503Z,100994.00
2023-03-29T16:28:05.688Z,100985.00
2023-03-29T16:30:32.650Z,100982.00
2023-03-29T16:33:01.141Z,100995.00
2023-03-29T16:35:31.511Z,100986.00
2023-03-29T16:37:58.293Z,100984.00
2023-03-29T16:40:26.443Z,100976.00
2023-03-29T16:42:54.440Z,100986.00
2023-03-29T16:45:21.669Z,100985.00
2023-03-29T16:47:48.264Z,100999.00
2023-03-29T16:50:17.929Z,100987.00
2023-03-29T16:52:46.091Z,100991.00
2023-03-29T16:55:13.515Z,100982.00
2023-03-29T16:57:40.409Z,100982.00
2023-03-29T17:00:10.980Z,100981.00
2023-03-29T17:02:37.517Z,100975.00
2023-03-29T17:05:04.163Z,100978.00
2023-03-29T17:07:30.894Z,100975.00
2023-03-29T17:09:57.358Z,100967.00
2023-03-29T17:12:24.083Z,100965.00
2023-03-29T17:14:51.190Z,100968.00
2023-03-29T17:17:17.943Z,100956.00
2023-03-29T17:19:44.750Z,100957.00
2023-03-29T17:22:12.228Z,100963.00
2023-03-29T17:24:38.844Z,100962.00
2023-03-29T17:27:05.477Z,100963.00
2023-03-29T17:29:32.095Z,100962.00
2023-03-29T17:31:58.564Z,100963.00
2023-03-29T17:34:27.301Z,100961.00
2023-03-29T17:36:54.508Z,100958.00
2023-03-29T17:39:21.366Z,100965.00
2023-03-29T17:41:48.683Z,100960.00
2023-03-29T17:44:16.939Z,100951.00
2023-03-29T17:46:43.646Z,100940.00
2023-03-29T17:49:13.780Z,100951.00
2023-03-29T17:51:41.273Z,100961.00
2023-03-29T17:54:08.032Z,100955.00
2023-03-29T17:56:34.511Z,100959.00
2023-03-29T17:59:02.234Z,100962.00
2023-03-29T18:01:28.797Z,100959.00
2023-03-29T18:03:55.616Z,100963.00
2023-03-29T18:06:22.203Z,100956.00
2023-03-29T18:08:48.989Z,100961.00
2023-03-29T18:11:22.887Z,100957.00
2023-03-29T18:13:51.299Z,100963.00
2023-03-29T18:16:20.217Z,100960.00
2023-03-29T18:18:47.421Z,100963.00
2023-03-29T18:21:17.452Z,100964.00
2023-03-29T18:23:46.994Z,100961.00
2023-03-29T18:26:15.594Z,100954.00
2023-03-29T18:28:46.614Z,100960.00
2023-03-29T18:31:14.022Z,100964.00
2023-03-29T18:33:40.866Z,100965.00
2023-03-29T18:36:11.951Z,100959.00
2023-03-29T18:38:40.596Z,100963.00
2023-03-29T18:41:08.585Z,100964.00
2023-03-29T18:43:39.560Z,100959.00
2023-03-29T18:46:08.352Z,100961.00
2023-03-29T18:48:41.641Z,100955.00
2023-03-29T18:51:10.118Z,100961.00
2023-03-29T18:53:39.693Z,100968.00
2023-03-29T18:56:06.591Z,100966.00
2023-03-29T18:58:33.616Z,100969.00
2023-03-29T19:01:03.167Z,100972.00
2023-03-29T19:03:30.904Z,100968.00
2023-03-29T19:05:57.781Z,100968.00
2023-03-29T19:08:26.563Z,100962.00
2023-03-29T19:11:08.346Z,100950.00
2023-03-29T19:13:36.770Z,100954.00
2023-03-29T19:16:04.352Z,100951.00
2023-03-29T19:18:32.245Z,100954.00
2023-03-29T19:21:01.659Z,100947.00
2023-03-29T19:23:28.599Z,100947.00
2023-03-29T19:25:57.565Z,100947.00
2023-03-29T19:28:25.146Z,100950.00
2023-03-29T19:30:51.960Z,100943.00
2023-03-29T19:33:19.855Z,100948.00
2023-03-29T19:35:50.382Z,100940.00
2023-03-29T19:38:19.629Z,100936.00
2023-03-29T19:40:48.105Z,100940.00
2023-03-29T19:43:16.748Z,100938.00
2023-03-29T19:45:44.690Z,100939.00
2023-03-29T19:48:21.876Z,100944.00
2023-03-29T19:50:50.160Z,100932.00
2023-03-29T19:53:17.802Z,100926.00
2023-03-29T19:55:45.044Z,100933.00
2023-03-29T19:58:12.851Z,100937.00
2023-03-29T20:00:39.506Z,100928.00
2023-03-29T20:03:11.702Z,100923.00
2023-03-29T20:05:39.146Z,100916.00
2023-03-29T20:08:07.071Z,100916.00
2023-03-29T20:10:33.853Z,100916.00
2023-03-29T20:13:02.467Z,100909.00
2023-03-29T20:15:29.602Z,100910.00
2023-03-29T20:17:59.625Z,100913.00
2023-03-29T20:20:26.828Z,100899.00
2023-03-29T20:22:58.648Z,100904.00
2023-03-29T20:25:26.363Z,100908.00
2023-03-29T20:27:53.604Z,100903.00
2023-03-29T20:30:20.644Z,100910.00
2023-03-29T20:32:47.486Z,100898.00
2023-03-29T20:35:14.125Z,100891.00
2023-03-29T20:37:43.035Z,100887.00
2023-03-29T20:40:11.280Z,100889.00
2023-03-29T20:42:40.097Z,100894.00
2023-03-29T20:45:08.233Z,100883.00
2023-03-29T20:47:42.361Z,100884.00
2023-03-29T20:50:11.414Z,100877.00
2023-03-29T20:52:38.479Z,100876.00
2023-03-29T20:55:05.624Z,100874.00
2023-03-29T20:57:32.179Z,100878.00
2023-03-29T20:59:59.156Z,100876.00
2023-03-29T21:02:25.721Z,100871.00
2023-03-29T21:04:53.548Z,100871.00
2023-03-29T21:07:21.634Z,100870.00
2023-03-29T21:09:50.447Z,100868.00
2023-03-29T21:12:17.372Z,100862.00
2023-03-29T21:14:44.570Z,100861.00
2023-03-29T21:17:11.653Z,100861.00
2023-03-29T21:19:39.332Z,100858.00
2023-03-29T21:22:06.187Z,100849.00
2023-03-29T21:24:34.009Z,100847.00
2023-03-29T21:27:01.334Z,100844.00
2023-03-29T21:29:28.281Z,100844.00
2023-03-29T21:31:55.051Z,100831.00
2023-03-29T21:34:21.827Z,100827.00
2023-03-29T21:36:52.798Z,100823.00
2023-03-29T21:39:20.146Z,100830.00
2023-03-29T21:41:49.428Z,100820.00
2023-03-29T21:44:19.693Z,100816.00
2023-03-29T21:46:46.182Z,100812.00
2023-03-29T21:49:12.928Z,100812.00
2023-03-29T21:51:39.540Z,100809.00
2023-03-29T21:54:07.778Z,100807.00
2023-03-29T21:56:35.244Z,100804.00
2023-03-29T21:59:04.621Z,100809.00
2023-03-29T22:01:38.590Z,100805.00
2023-03-29T22:04:05.239Z,100796.00
2023-03-29T22:06:32.164Z,100801.00
2023-03-29T22:09:00.937Z,100797.00
2023-03-29T22:11:28.591Z,100797.00
2023-03-29T22:13:55.590Z,100793.00
2023-03-29T22:16:28.125Z,100792.00
2023-03-29T22:18:54.909Z,100781.00
2023-03-29T22:21:27.237Z,100785.00
2023-03-29T22:23:55.982Z,100785.00
2023-03-29T22:26:28.007Z,100786.00
2023-03-29T22:28:55.590Z,100784.00
2023-03-29T22:31:23.893Z,100786.00
2023-03-29T22:33:50.832Z,100779.00
2023-03-29T22:36:36.189Z,100779.00
2023-03-29T22:39:03.763Z,100779.00
2023-03-29T22:41:30.531Z,100782.00
2023-03-29T22:43:59.311Z,100780.00
2023-03-29T22:46:26.441Z,100777.00
2023-03-29T22:48:53.674Z,100768.00
2023-03-29T22:51:20.743Z,100765.00
2023-03-29T22:53:47.882Z,100758.00
2023-03-29T22:56:16.076Z,100773.00
2023-03-29T22:58:44.868Z,100776.00
2023-03-29T23:01:11.840Z,100764.00
2023-03-29T23:03:38.707Z,100762.00
2023-03-29T23:06:09.624Z,100762.00
2023-03-29T23:08:37.595Z,100755.00
2023-03-29T23:11:04.694Z,100753.00
2023-03-29T23:13:33.798Z,100751.00
2023-03-29T23:16:02.587Z,100744.00
2023-03-29T23:18:31.833Z,100751.00
2023-03-29T23:21:06.744Z,100749.00
2023-03-29T23:23:35.881Z,100737.00
2023-03-29T23:26:02.834Z,100738.00
2023-03-29T23:28:30.800Z,100740.00
2023-03-29T23:31:12.514Z,100745.00
2023-03-29T23:33:41.910Z,100746.00
2023-03-29T23:36:13.443Z,100740.00
2023-03-29T23:38:40.287Z,100733.00
2023-03-29T23:41:10.838Z,100724.00
2023-03-29T23:43:40.793Z,100730.00
2023-03-29T23:46:13.234Z,100730.00
2023-03-29T23:48:40.003Z,100722.00
2023-03-29T23:51:08.027Z,100727.00
2023-03-29T23:53:34.874Z,100724.00
2023-03-29T23:56:03.683Z,100725.00
2023-03-29T23:58:33.150Z,100719.00
